sensor_id;sensor_type;location;lat;lon;timestamp;P1;durP1;ratioP1;P2;durP2;ratioP2
51374;SDS011;37465;52.738;4.752;2023-11-21T00:00:15;12.02;;;5.18;;
51374;SDS011;37465;52.738;4.752;2023-11-21T00:02:44;12.63;;;4.45;;
51374;SDS011;37465;52.738;4.752;2023-11-21T00:05:13;12.40;;;4.68;;
51374;SDS011;37465;52.738;4.752;2023-11-21T00:10:11;12.43;;;4.55;;
51374;SDS011;37465;52.738;4.752;2023-11-21T00:12:41;16.70;;;5.05;;
51374;SDS011;37465;52.738;4.752;2023-11-21T00:15:09;14.50;;;5.20;;
51374;SDS011;37465;52.738;4.752;2023-11-21T00:17:38;14.45;;;5.03;;
51374;SDS011;37465;52.738;4.752;2023-11-21T00:20:08;11.68;;;4.78;;
51374;SDS011;37465;52.738;4.752;2023-11-21T00:22:39;16.33;;;5.63;;
51374;SDS011;37465;52.738;4.752;2023-11-21T00:25:07;9.85;;;5.05;;
51374;SDS011;37465;52.738;4.752;2023-11-21T00:27:36;12.40;;;5.03;;
51374;SDS011;37465;52.738;4.752;2023-11-21T00:30:04;11.40;;;5.20;;
51374;SDS011;37465;52.738;4.752;2023-11-21T00:32:33;13.73;;;4.65;;
51374;SDS011;37465;52.738;4.752;2023-11-21T00:35:02;15.75;;;6.07;;
51374;SDS011;37465;52.738;4.752;2023-11-21T00:37:32;13.65;;;5.18;;
51374;SDS011;37465;52.738;4.752;2023-11-21T00:40:00;16.25;;;5.63;;
51374;SDS011;37465;52.738;4.752;2023-11-21T00:42:31;9.73;;;4.80;;
51374;SDS011;37465;52.738;4.752;2023-11-21T00:45:00;13.50;;;4.75;;
51374;SDS011;37465;52.738;4.752;2023-11-21T00:47:28;10.13;;;4.50;;
51374;SDS011;37465;52.738;4.752;2023-11-21T00:49:56;9.70;;;4.30;;
51374;SDS011;37465;52.738;4.752;2023-11-21T00:52:24;11.00;;;4.13;;
51374;SDS011;37465;52.738;4.752;2023-11-21T00:54:53;9.65;;;3.40;;
51374;SDS011;37465;52.738;4.752;2023-11-21T00:57:21;10.32;;;3.40;;
51374;SDS011;37465;52.738;4.752;2023-11-21T00:59:49;7.30;;;3.65;;
51374;SDS011;37465;52.738;4.752;2023-11-21T01:02:16;9.30;;;3.53;;
51374;SDS011;37465;52.738;4.752;2023-11-21T01:04:44;8.07;;;3.20;;
51374;SDS011;37465;52.738;4.752;2023-11-21T01:07:12;8.27;;;3.40;;
51374;SDS011;37465;52.738;4.752;2023-11-21T01:09:39;6.18;;;2.75;;
51374;SDS011;37465;52.738;4.752;2023-11-21T01:12:08;9.00;;;3.35;;
51374;SDS011;37465;52.738;4.752;2023-11-21T01:14:36;9.13;;;2.95;;
51374;SDS011;37465;52.738;4.752;2023-11-21T01:17:04;5.75;;;2.58;;
51374;SDS011;37465;52.738;4.752;2023-11-21T01:19:32;4.97;;;2.70;;
51374;SDS011;37465;52.738;4.752;2023-11-21T01:22:00;6.60;;;2.63;;
51374;SDS011;37465;52.738;4.752;2023-11-21T01:24:28;5.10;;;2.40;;
51374;SDS011;37465;52.738;4.752;2023-11-21T01:26:55;6.40;;;2.17;;
51374;SDS011;37465;52.738;4.752;2023-11-21T01:29:24;3.70;;;1.90;;
51374;SDS011;37465;52.738;4.752;2023-11-21T01:31:52;4.28;;;2.20;;
51374;SDS011;37465;52.738;4.752;2023-11-21T01:34:20;7.00;;;1.95;;
51374;SDS011;37465;52.738;4.752;2023-11-21T01:36:47;3.00;;;1.55;;
51374;SDS011;37465;52.738;4.752;2023-11-21T01:39:15;2.90;;;1.38;;
51374;SDS011;37465;52.738;4.752;2023-11-21T01:41:49;5.93;;;1.70;;
51374;SDS011;37465;52.738;4.752;2023-11-21T01:44:18;2.13;;;1.38;;
51374;SDS011;37465;52.738;4.752;2023-11-21T01:46:48;3.92;;;1.00;;
51374;SDS011;37465;52.738;4.752;2023-11-21T01:49:15;5.03;;;1.38;;
51374;SDS011;37465;52.738;4.752;2023-11-21T01:51:44;3.78;;;1.10;;
51374;SDS011;37465;52.738;4.752;2023-11-21T01:54:16;7.40;;;1.27;;
51374;SDS011;37465;52.738;4.752;2023-11-21T01:56:45;2.85;;;1.40;;
51374;SDS011;37465;52.738;4.752;2023-11-21T01:59:14;1.95;;;1.10;;
51374;SDS011;37465;52.738;4.752;2023-11-21T02:01:48;3.45;;;0.90;;
51374;SDS011;37465;52.738;4.752;2023-11-21T02:04:17;1.42;;;1.00;;
51374;SDS011;37465;52.738;4.752;2023-11-21T02:06:45;2.38;;;1.00;;
51374;SDS011;37465;52.738;4.752;2023-11-21T02:09:13;2.85;;;0.77;;
51374;SDS011;37465;52.738;4.752;2023-11-21T02:11:41;1.33;;;0.80;;
51374;SDS011;37465;52.738;4.752;2023-11-21T02:14:10;4.22;;;1.10;;
51374;SDS011;37465;52.738;4.752;2023-11-21T02:16:40;2.47;;;1.02;;
51374;SDS011;37465;52.738;4.752;2023-11-21T02:19:09;3.40;;;1.10;;
51374;SDS011;37465;52.738;4.752;2023-11-21T02:21:39;3.17;;;1.00;;
51374;SDS011;37465;52.738;4.752;2023-11-21T02:24:08;2.42;;;1.10;;
51374;SDS011;37465;52.738;4.752;2023-11-21T02:26:36;2.13;;;1.10;;
51374;SDS011;37465;52.738;4.752;2023-11-21T02:29:04;2.58;;;1.40;;
51374;SDS011;37465;52.738;4.752;2023-11-21T02:31:31;1.60;;;1.40;;
51374;SDS011;37465;52.738;4.752;2023-11-21T02:33:59;4.97;;;1.20;;
51374;SDS011;37465;52.738;4.752;2023-11-21T02:36:27;3.28;;;1.23;;
51374;SDS011;37465;52.738;4.752;2023-11-21T02:38:55;3.70;;;1.60;;
51374;SDS011;37465;52.738;4.752;2023-11-21T02:41:24;3.17;;;1.40;;
51374;SDS011;37465;52.738;4.752;2023-11-21T02:43:52;3.30;;;1.17;;
51374;SDS011;37465;52.738;4.752;2023-11-21T02:46:20;5.15;;;1.90;;
51374;SDS011;37465;52.738;4.752;2023-11-21T02:48:48;3.17;;;1.65;;
51374;SDS011;37465;52.738;4.752;2023-11-21T02:51:17;5.22;;;1.95;;
51374;SDS011;37465;52.738;4.752;2023-11-21T02:53:45;3.53;;;1.90;;
51374;SDS011;37465;52.738;4.752;2023-11-21T02:56:13;3.35;;;2.05;;
51374;SDS011;37465;52.738;4.752;2023-11-21T02:58:42;2.67;;;1.80;;
51374;SDS011;37465;52.738;4.752;2023-11-21T03:01:10;9.45;;;2.08;;
51374;SDS011;37465;52.738;4.752;2023-11-21T03:03:39;5.10;;;2.35;;
51374;SDS011;37465;52.738;4.752;2023-11-21T03:06:07;4.65;;;2.28;;
51374;SDS011;37465;52.738;4.752;2023-11-21T03:08:34;5.28;;;1.98;;
51374;SDS011;37465;52.738;4.752;2023-11-21T03:11:02;5.30;;;2.30;;
51374;SDS011;37465;52.738;4.752;2023-11-21T03:13:30;2.65;;;1.58;;
51374;SDS011;37465;52.738;4.752;2023-11-21T03:15:59;3.15;;;2.00;;
51374;SDS011;37465;52.738;4.752;2023-11-21T03:18:27;4.70;;;1.88;;
51374;SDS011;37465;52.738;4.752;2023-11-21T03:20:55;4.05;;;2.10;;
51374;SDS011;37465;52.738;4.752;2023-11-21T03:23:23;5.38;;;1.80;;
51374;SDS011;37465;52.738;4.752;2023-11-21T03:25:51;4.80;;;1.70;;
51374;SDS011;37465;52.738;4.752;2023-11-21T03:28:18;3.15;;;1.90;;
51374;SDS011;37465;52.738;4.752;2023-11-21T03:30:46;7.10;;;2.20;;
51374;SDS011;37465;52.738;4.752;2023-11-21T03:33:15;6.75;;;2.00;;
51374;SDS011;37465;52.738;4.752;2023-11-21T03:35:43;8.30;;;2.63;;
51374;SDS011;37465;52.738;4.752;2023-11-21T03:38:12;8.25;;;2.58;;
51374;SDS011;37465;52.738;4.752;2023-11-21T03:40:40;11.95;;;3.13;;
51374;SDS011;37465;52.738;4.752;2023-11-21T03:43:07;4.10;;;3.10;;
51374;SDS011;37465;52.738;4.752;2023-11-21T03:45:35;10.00;;;3.10;;
51374;SDS011;37465;52.738;4.752;2023-11-21T03:48:03;8.82;;;3.17;;
51374;SDS011;37465;52.738;4.752;2023-11-21T03:50:32;7.50;;;3.25;;
51374;SDS011;37465;52.738;4.752;2023-11-21T03:53:00;9.50;;;3.40;;
51374;SDS011;37465;52.738;4.752;2023-11-21T03:55:28;13.48;;;4.00;;
51374;SDS011;37465;52.738;4.752;2023-11-21T03:57:57;7.65;;;3.97;;
51374;SDS011;37465;52.738;4.752;2023-11-21T04:00:25;14.80;;;5.13;;
51374;SDS011;37465;52.738;4.752;2023-11-21T04:02:54;13.15;;;5.00;;
51374;SDS011;37465;52.738;4.752;2023-11-21T04:05:21;11.52;;;4.93;;
51374;SDS011;37465;52.738;4.752;2023-11-21T04:07:51;14.52;;;5.70;;
51374;SDS011;37465;52.738;4.752;2023-11-21T04:10:19;18.20;;;5.93;;
51374;SDS011;37465;52.738;4.752;2023-11-21T04:12:48;17.45;;;4.93;;
51374;SDS011;37465;52.738;4.752;2023-11-21T04:15:15;14.23;;;6.20;;
51374;SDS011;37465;52.738;4.752;2023-11-21T04:17:43;19.80;;;5.93;;
51374;SDS011;37465;52.738;4.752;2023-11-21T04:20:11;17.45;;;5.82;;
51374;SDS011;37465;52.738;4.752;2023-11-21T04:22:39;16.58;;;6.40;;
51374;SDS011;37465;52.738;4.752;2023-11-21T04:25:12;15.23;;;6.10;;
51374;SDS011;37465;52.738;4.752;2023-11-21T04:27:42;17.45;;;6.45;;
51374;SDS011;37465;52.738;4.752;2023-11-21T04:30:11;19.13;;;6.70;;
51374;SDS011;37465;52.738;4.752;2023-11-21T04:32:39;19.50;;;6.00;;
51374;SDS011;37465;52.738;4.752;2023-11-21T04:35:08;16.50;;;6.22;;
51374;SDS011;37465;52.738;4.752;2023-11-21T04:37:36;14.75;;;5.88;;
51374;SDS011;37465;52.738;4.752;2023-11-21T04:40:04;11.30;;;5.72;;
51374;SDS011;37465;52.738;4.752;2023-11-21T04:42:35;11.90;;;5.43;;
51374;SDS011;37465;52.738;4.752;2023-11-21T04:45:03;16.25;;;5.30;;
51374;SDS011;37465;52.738;4.752;2023-11-21T04:47:35;10.23;;;5.00;;
51374;SDS011;37465;52.738;4.752;2023-11-21T04:50:03;19.02;;;5.63;;
51374;SDS011;37465;52.738;4.752;2023-11-21T04:52:32;13.00;;;5.00;;
51374;SDS011;37465;52.738;4.752;2023-11-21T04:55:00;11.20;;;4.47;;
51374;SDS011;37465;52.738;4.752;2023-11-21T04:57:28;18.73;;;4.78;;
51374;SDS011;37465;52.738;4.752;2023-11-21T04:59:57;13.68;;;5.00;;
51374;SDS011;37465;52.738;4.752;2023-11-21T05:02:25;14.85;;;5.32;;
51374;SDS011;37465;52.738;4.752;2023-11-21T05:05:01;15.32;;;4.03;;
51374;SDS011;37465;52.738;4.752;2023-11-21T05:07:32;20.70;;;5.10;;
51374;SDS011;37465;52.738;4.752;2023-11-21T05:12:33;15.20;;;3.97;;
51374;SDS011;37465;52.738;4.752;2023-11-21T05:15:04;10.82;;;3.80;;
51374;SDS011;37465;52.738;4.752;2023-11-21T05:17:36;13.75;;;4.53;;
51374;SDS011;37465;52.738;4.752;2023-11-21T05:20:05;12.25;;;4.68;;
51374;SDS011;37465;52.738;4.752;2023-11-21T05:22:36;7.68;;;3.20;;
51374;SDS011;37465;52.738;4.752;2023-11-21T05:25:04;15.18;;;3.58;;
51374;SDS011;37465;52.738;4.752;2023-11-21T05:27:34;7.72;;;3.50;;
51374;SDS011;37465;52.738;4.752;2023-11-21T05:30:03;8.15;;;3.80;;
51374;SDS011;37465;52.738;4.752;2023-11-21T05:32:35;12.35;;;3.40;;
51374;SDS011;37465;52.738;4.752;2023-11-21T05:35:03;8.27;;;3.00;;
51374;SDS011;37465;52.738;4.752;2023-11-21T05:37:35;6.63;;;2.50;;
51374;SDS011;37465;52.738;4.752;2023-11-21T05:40:05;7.28;;;2.78;;
51374;SDS011;37465;52.738;4.752;2023-11-21T05:42:34;6.43;;;2.38;;
51374;SDS011;37465;52.738;4.752;2023-11-21T05:45:06;6.50;;;2.17;;
51374;SDS011;37465;52.738;4.752;2023-11-21T05:47:37;6.28;;;2.35;;
51374;SDS011;37465;52.738;4.752;2023-11-21T05:50:07;9.20;;;3.15;;
51374;SDS011;37465;52.738;4.752;2023-11-21T05:52:38;7.97;;;3.72;;
51374;SDS011;37465;52.738;4.752;2023-11-21T05:55:06;12.13;;;5.18;;
51374;SDS011;37465;52.738;4.752;2023-11-21T05:57:34;11.73;;;4.40;;
51374;SDS011;37465;52.738;4.752;2023-11-21T06:00:03;11.63;;;4.07;;
51374;SDS011;37465;52.738;4.752;2023-11-21T06:02:39;13.23;;;4.32;;
51374;SDS011;37465;52.738;4.752;2023-11-21T06:05:07;11.82;;;4.32;;
51374;SDS011;37465;52.738;4.752;2023-11-21T06:07:36;13.82;;;4.43;;
51374;SDS011;37465;52.738;4.752;2023-11-21T06:10:05;9.73;;;4.72;;
51374;SDS011;37465;52.738;4.752;2023-11-21T06:12:37;11.40;;;4.30;;
51374;SDS011;37465;52.738;4.752;2023-11-21T06:15:07;18.38;;;4.88;;
51374;SDS011;37465;52.738;4.752;2023-11-21T06:17:35;15.90;;;4.80;;
51374;SDS011;37465;52.738;4.752;2023-11-21T06:20:06;14.75;;;5.55;;
51374;SDS011;37465;52.738;4.752;2023-11-21T06:22:36;14.73;;;4.97;;
51374;SDS011;37465;52.738;4.752;2023-11-21T06:25:04;14.30;;;4.68;;
51374;SDS011;37465;52.738;4.752;2023-11-21T06:30:02;10.93;;;5.70;;
51374;SDS011;37465;52.738;4.752;2023-11-21T06:32:31;11.20;;;5.17;;
51374;SDS011;37465;52.738;4.752;2023-11-21T06:34:58;13.20;;;5.18;;
51374;SDS011;37465;52.738;4.752;2023-11-21T06:37:28;11.65;;;5.40;;
51374;SDS011;37465;52.738;4.752;2023-11-21T06:39:56;9.38;;;4.72;;
51374;SDS011;37465;52.738;4.752;2023-11-21T06:42:25;7.68;;;4.25;;
51374;SDS011;37465;52.738;4.752;2023-11-21T06:44:55;8.45;;;4.75;;
51374;SDS011;37465;52.738;4.752;2023-11-21T06:47:23;9.77;;;5.82;;
51374;SDS011;37465;52.738;4.752;2023-11-21T06:49:52;11.98;;;5.55;;
51374;SDS011;37465;52.738;4.752;2023-11-21T06:52:20;8.70;;;5.65;;
51374;SDS011;37465;52.738;4.752;2023-11-21T06:54:50;11.73;;;6.45;;
51374;SDS011;37465;52.738;4.752;2023-11-21T06:57:18;8.73;;;5.43;;
51374;SDS011;37465;52.738;4.752;2023-11-21T06:59:45;7.22;;;4.40;;
51374;SDS011;37465;52.738;4.752;2023-11-21T07:02:13;6.55;;;4.10;;
51374;SDS011;37465;52.738;4.752;2023-11-21T07:04:41;11.88;;;4.50;;
51374;SDS011;37465;52.738;4.752;2023-11-21T07:07:09;6.80;;;4.00;;
51374;SDS011;37465;52.738;4.752;2023-11-21T07:09:36;6.35;;;3.78;;
51374;SDS011;37465;52.738;4.752;2023-11-21T07:12:06;8.68;;;3.97;;
51374;SDS011;37465;52.738;4.752;2023-11-21T07:14:34;8.98;;;4.60;;
51374;SDS011;37465;52.738;4.752;2023-11-21T07:17:02;12.52;;;5.53;;
51374;SDS011;37465;52.738;4.752;2023-11-21T07:19:30;11.38;;;5.55;;
51374;SDS011;37465;52.738;4.752;2023-11-21T07:21:57;9.43;;;5.57;;
51374;SDS011;37465;52.738;4.752;2023-11-21T07:24:25;11.45;;;5.47;;
51374;SDS011;37465;52.738;4.752;2023-11-21T07:26:53;8.93;;;5.47;;
51374;SDS011;37465;52.738;4.752;2023-11-21T07:31:52;11.57;;;5.07;;
51374;SDS011;37465;52.738;4.752;2023-11-21T07:34:20;10.95;;;5.45;;
51374;SDS011;37465;52.738;4.752;2023-11-21T07:36:48;14.05;;;5.85;;
51374;SDS011;37465;52.738;4.752;2023-11-21T07:39:16;10.25;;;5.55;;
51374;SDS011;37465;52.738;4.752;2023-11-21T07:41:44;13.38;;;5.22;;
51374;SDS011;37465;52.738;4.752;2023-11-21T07:44:15;10.57;;;5.68;;
51374;SDS011;37465;52.738;4.752;2023-11-21T07:46:45;11.95;;;5.82;;
51374;SDS011;37465;52.738;4.752;2023-11-21T07:49:12;12.60;;;6.10;;
51374;SDS011;37465;52.738;4.752;2023-11-21T07:51:42;13.30;;;6.35;;
51374;SDS011;37465;52.738;4.752;2023-11-21T07:54:10;12.40;;;6.13;;
51374;SDS011;37465;52.738;4.752;2023-11-21T07:56:38;12.80;;;6.00;;
51374;SDS011;37465;52.738;4.752;2023-11-21T07:59:06;11.82;;;5.90;;
51374;SDS011;37465;52.738;4.752;2023-11-21T08:01:34;13.40;;;6.03;;
51374;SDS011;37465;52.738;4.752;2023-11-21T08:04:03;11.98;;;6.47;;
51374;SDS011;37465;52.738;4.752;2023-11-21T08:06:32;14.85;;;6.18;;
51374;SDS011;37465;52.738;4.752;2023-11-21T08:09:00;12.20;;;6.03;;
51374;SDS011;37465;52.738;4.752;2023-11-21T08:11:28;14.23;;;6.13;;
51374;SDS011;37465;52.738;4.752;2023-11-21T08:16:26;10.18;;;5.00;;
51374;SDS011;37465;52.738;4.752;2023-11-21T08:18:54;10.23;;;5.18;;
51374;SDS011;37465;52.738;4.752;2023-11-21T08:21:24;10.43;;;5.10;;
51374;SDS011;37465;52.738;4.752;2023-11-21T08:23:53;8.68;;;4.60;;
51374;SDS011;37465;52.738;4.752;2023-11-21T08:26:21;11.88;;;5.75;;
51374;SDS011;37465;52.738;4.752;2023-11-21T08:28:49;11.07;;;5.15;;
51374;SDS011;37465;52.738;4.752;2023-11-21T08:31:23;10.43;;;4.30;;
51374;SDS011;37465;52.738;4.752;2023-11-21T08:33:52;6.82;;;5.00;;
51374;SDS011;37465;52.738;4.752;2023-11-21T08:36:21;10.57;;;5.93;;
51374;SDS011;37465;52.738;4.752;2023-11-21T08:38:50;8.43;;;5.43;;
51374;SDS011;37465;52.738;4.752;2023-11-21T08:41:19;10.23;;;5.97;;
51374;SDS011;37465;52.738;4.752;2023-11-21T08:43:47;12.40;;;5.25;;
51374;SDS011;37465;52.738;4.752;2023-11-21T08:46:17;8.23;;;5.15;;
51374;SDS011;37465;52.738;4.752;2023-11-21T08:48:46;8.52;;;5.25;;
51374;SDS011;37465;52.738;4.752;2023-11-21T08:51:14;10.48;;;6.05;;
51374;SDS011;37465;52.738;4.752;2023-11-21T08:53:42;8.82;;;6.20;;
51374;SDS011;37465;52.738;4.752;2023-11-21T08:56:13;9.90;;;6.35;;
51374;SDS011;37465;52.738;4.752;2023-11-21T08:58:41;9.82;;;6.28;;
51374;SDS011;37465;52.738;4.752;2023-11-21T09:01:09;11.38;;;7.13;;
51374;SDS011;37465;52.738;4.752;2023-11-21T09:03:38;9.32;;;6.50;;
51374;SDS011;37465;52.738;4.752;2023-11-21T09:06:06;11.93;;;6.65;;
51374;SDS011;37465;52.738;4.752;2023-11-21T09:08:36;11.38;;;7.05;;
51374;SDS011;37465;52.738;4.752;2023-11-21T09:11:04;10.68;;;7.32;;
51374;SDS011;37465;52.738;4.752;2023-11-21T09:13:33;11.63;;;7.65;;
51374;SDS011;37465;52.738;4.752;2023-11-21T09:16:01;12.15;;;8.60;;
51374;SDS011;37465;52.738;4.752;2023-11-21T09:18:28;12.13;;;7.80;;
51374;SDS011;37465;52.738;4.752;2023-11-21T09:20:57;10.73;;;7.97;;
51374;SDS011;37465;52.738;4.752;2023-11-21T09:23:25;11.93;;;8.68;;
51374;SDS011;37465;52.738;4.752;2023-11-21T09:25:52;14.88;;;7.63;;
51374;SDS011;37465;52.738;4.752;2023-11-21T09:28:23;13.10;;;7.53;;
51374;SDS011;37465;52.738;4.752;2023-11-21T09:30:52;13.80;;;8.35;;
51374;SDS011;37465;52.738;4.752;2023-11-21T09:33:20;13.23;;;7.22;;
51374;SDS011;37465;52.738;4.752;2023-11-21T09:35:48;11.30;;;7.78;;
51374;SDS011;37465;52.738;4.752;2023-11-21T09:38:17;10.40;;;7.68;;
51374;SDS011;37465;52.738;4.752;2023-11-21T09:40:45;11.40;;;7.35;;
51374;SDS011;37465;52.738;4.752;2023-11-21T09:43:15;9.73;;;7.13;;
51374;SDS011;37465;52.738;4.752;2023-11-21T09:45:45;11.10;;;7.50;;
51374;SDS011;37465;52.738;4.752;2023-11-21T09:50:44;9.38;;;6.13;;
51374;SDS011;37465;52.738;4.752;2023-11-21T09:53:18;12.52;;;8.10;;
51374;SDS011;37465;52.738;4.752;2023-11-21T09:55:48;11.95;;;7.68;;
51374;SDS011;37465;52.738;4.752;2023-11-21T09:58:18;11.20;;;7.82;;
51374;SDS011;37465;52.738;4.752;2023-11-21T10:00:48;12.93;;;8.07;;
51374;SDS011;37465;52.738;4.752;2023-11-21T10:03:21;12.10;;;7.80;;
51374;SDS011;37465;52.738;4.752;2023-11-21T10:05:50;8.23;;;6.85;;
51374;SDS011;37465;52.738;4.752;2023-11-21T10:08:19;12.30;;;8.18;;
51374;SDS011;37465;52.738;4.752;2023-11-21T10:10:51;13.63;;;9.27;;
51374;SDS011;37465;52.738;4.752;2023-11-21T10:13:20;10.45;;;8.40;;
51374;SDS011;37465;52.738;4.752;2023-11-21T10:15:49;12.00;;;7.50;;
51374;SDS011;37465;52.738;4.752;2023-11-21T10:18:18;10.00;;;7.38;;
51374;SDS011;37465;52.738;4.752;2023-11-21T10:20:47;9.88;;;7.43;;
51374;SDS011;37465;52.738;4.752;2023-11-21T10:23:20;10.25;;;7.47;;
51374;SDS011;37465;52.738;4.752;2023-11-21T10:25:49;12.77;;;7.28;;
51374;SDS011;37465;52.738;4.752;2023-11-21T10:28:18;10.80;;;6.25;;
51374;SDS011;37465;52.738;4.752;2023-11-21T10:30:47;8.80;;;6.63;;
51374;SDS011;37465;52.738;4.752;2023-11-21T10:33:14;8.85;;;6.25;;
51374;SDS011;37465;52.738;4.752;2023-11-21T10:35:43;9.02;;;6.18;;
51374;SDS011;37465;52.738;4.752;2023-11-21T10:38:18;9.02;;;6.45;;
51374;SDS011;37465;52.738;4.752;2023-11-21T10:40:47;12.52;;;6.55;;
51374;SDS011;37465;52.738;4.752;2023-11-21T10:43:15;9.13;;;6.15;;
51374;SDS011;37465;52.738;4.752;2023-11-21T10:45:44;8.07;;;6.13;;
51374;SDS011;37465;52.738;4.752;2023-11-21T10:48:13;8.30;;;5.85;;
51374;SDS011;37465;52.738;4.752;2023-11-21T10:50:43;10.02;;;6.18;;
51374;SDS011;37465;52.738;4.752;2023-11-21T10:53:11;10.75;;;6.72;;
51374;SDS011;37465;52.738;4.752;2023-11-21T10:55:41;12.60;;;5.97;;
51374;SDS011;37465;52.738;4.752;2023-11-21T10:58:10;11.82;;;6.15;;
51374;SDS011;37465;52.738;4.752;2023-11-21T11:00:41;11.18;;;6.72;;
51374;SDS011;37465;52.738;4.752;2023-11-21T11:03:09;12.10;;;6.70;;
51374;SDS011;37465;52.738;4.752;2023-11-21T11:05:43;9.98;;;6.25;;
51374;SDS011;37465;52.738;4.752;2023-11-21T11:08:18;9.45;;;5.70;;
51374;SDS011;37465;52.738;4.752;2023-11-21T11:10:55;8.18;;;5.65;;
51374;SDS011;37465;52.738;4.752;2023-11-21T11:13:24;10.55;;;5.40;;
51374;SDS011;37465;52.738;4.752;2023-11-21T11:15:54;6.88;;;5.20;;
51374;SDS011;37465;52.738;4.752;2023-11-21T11:18:26;6.75;;;4.63;;
51374;SDS011;37465;52.738;4.752;2023-11-21T11:20:56;7.95;;;4.95;;
51374;SDS011;37465;52.738;4.752;2023-11-21T11:23:41;6.47;;;4.65;;
51374;SDS011;37465;52.738;4.752;2023-11-21T11:26:23;7.95;;;4.95;;
51374;SDS011;37465;52.738;4.752;2023-11-21T11:29:00;6.90;;;3.95;;
51374;SDS011;37465;52.738;4.752;2023-11-21T11:31:37;7.32;;;4.63;;
51374;SDS011;37465;52.738;4.752;2023-11-21T11:34:15;5.13;;;4.07;;
51374;SDS011;37465;52.738;4.752;2023-11-21T11:36:54;7.57;;;4.65;;
51374;SDS011;37465;52.738;4.752;2023-11-21T11:39:29;7.35;;;4.68;;
51374;SDS011;37465;52.738;4.752;2023-11-21T11:42:01;6.88;;;5.13;;
51374;SDS011;37465;52.738;4.752;2023-11-21T11:47:20;7.20;;;4.30;;
51374;SDS011;37465;52.738;4.752;2023-11-21T11:49:57;5.80;;;4.40;;
51374;SDS011;37465;52.738;4.752;2023-11-21T11:52:33;8.27;;;3.22;;
51374;SDS011;37465;52.738;4.752;2023-11-21T11:55:03;5.85;;;3.28;;
51374;SDS011;37465;52.738;4.752;2023-11-21T11:57:32;3.88;;;3.00;;
51374;SDS011;37465;52.738;4.752;2023-11-21T12:00:14;3.53;;;2.63;;
51374;SDS011;37465;52.738;4.752;2023-11-21T12:02:45;4.70;;;3.05;;
51374;SDS011;37465;52.738;4.752;2023-11-21T12:05:14;3.60;;;2.90;;
51374;SDS011;37465;52.738;4.752;2023-11-21T12:07:45;4.35;;;2.67;;
51374;SDS011;37465;52.738;4.752;2023-11-21T12:10:15;3.22;;;2.28;;
51374;SDS011;37465;52.738;4.752;2023-11-21T12:12:46;1.90;;;1.80;;
51374;SDS011;37465;52.738;4.752;2023-11-21T12:15:15;2.25;;;1.88;;
51374;SDS011;37465;52.738;4.752;2023-11-21T12:17:43;2.15;;;1.75;;
51374;SDS011;37465;52.738;4.752;2023-11-21T12:20:12;2.95;;;2.05;;
51374;SDS011;37465;52.738;4.752;2023-11-21T12:22:45;4.05;;;2.92;;
51374;SDS011;37465;52.738;4.752;2023-11-21T12:25:16;2.45;;;2.25;;
51374;SDS011;37465;52.738;4.752;2023-11-21T12:27:45;3.92;;;2.53;;
51374;SDS011;37465;52.738;4.752;2023-11-21T12:30:16;2.92;;;2.60;;
51374;SDS011;37465;52.738;4.752;2023-11-21T12:32:47;3.90;;;2.80;;
51374;SDS011;37465;52.738;4.752;2023-11-21T12:35:16;4.18;;;2.83;;
51374;SDS011;37465;52.738;4.752;2023-11-21T12:37:45;3.53;;;2.95;;
51374;SDS011;37465;52.738;4.752;2023-11-21T12:40:14;3.47;;;2.70;;
51374;SDS011;37465;52.738;4.752;2023-11-21T12:45:20;2.92;;;2.60;;
51374;SDS011;37465;52.738;4.752;2023-11-21T12:50:22;2.58;;;2.05;;
51374;SDS011;37465;52.738;4.752;2023-11-21T12:52:53;2.13;;;1.75;;
51374;SDS011;37465;52.738;4.752;2023-11-21T12:55:21;2.47;;;1.95;;
51374;SDS011;37465;52.738;4.752;2023-11-21T12:57:50;2.70;;;2.10;;
51374;SDS011;37465;52.738;4.752;2023-11-21T13:00:27;3.00;;;1.70;;
51374;SDS011;37465;52.738;4.752;2023-11-21T13:02:58;2.40;;;2.20;;
51374;SDS011;37465;52.738;4.752;2023-11-21T13:05:26;1.70;;;1.60;;
51374;SDS011;37465;52.738;4.752;2023-11-21T13:07:56;1.83;;;1.50;;
51374;SDS011;37465;52.738;4.752;2023-11-21T13:10:26;2.10;;;1.90;;
51374;SDS011;37465;52.738;4.752;2023-11-21T13:12:57;3.38;;;2.08;;
51374;SDS011;37465;52.738;4.752;2023-11-21T13:15:27;1.67;;;1.58;;
51374;SDS011;37465;52.738;4.752;2023-11-21T13:17:57;2.20;;;2.00;;
51374;SDS011;37465;52.738;4.752;2023-11-21T13:20:25;2.85;;;2.35;;
51374;SDS011;37465;52.738;4.752;2023-11-21T13:22:53;2.28;;;1.90;;
51374;SDS011;37465;52.738;4.752;2023-11-21T13:25:23;3.00;;;2.13;;
51374;SDS011;37465;52.738;4.752;2023-11-21T13:27:54;3.28;;;2.05;;
51374;SDS011;37465;52.738;4.752;2023-11-21T13:30:22;2.50;;;2.30;;
51374;SDS011;37465;52.738;4.752;2023-11-21T13:32:54;3.70;;;2.90;;
51374;SDS011;37465;52.738;4.752;2023-11-21T13:35:28;3.75;;;2.72;;
51374;SDS011;37465;52.738;4.752;2023-11-21T13:38:03;3.55;;;2.67;;
51374;SDS011;37465;52.738;4.752;2023-11-21T13:40:32;2.83;;;2.47;;
51374;SDS011;37465;52.738;4.752;2023-11-21T13:43:06;2.72;;;2.20;;
51374;SDS011;37465;52.738;4.752;2023-11-21T13:45:36;3.58;;;2.50;;
51374;SDS011;37465;52.738;4.752;2023-11-21T13:48:10;3.58;;;2.50;;
51374;SDS011;37465;52.738;4.752;2023-11-21T13:50:40;3.70;;;3.05;;
51374;SDS011;37465;52.738;4.752;2023-11-21T13:53:15;3.20;;;2.90;;
51374;SDS011;37465;52.738;4.752;2023-11-21T13:55:48;3.75;;;3.22;;
51374;SDS011;37465;52.738;4.752;2023-11-21T13:58:17;3.63;;;3.15;;
51374;SDS011;37465;52.738;4.752;2023-11-21T14:00:48;3.72;;;3.42;;
51374;SDS011;37465;52.738;4.752;2023-11-21T14:03:24;3.92;;;3.40;;
51374;SDS011;37465;52.738;4.752;2023-11-21T14:06:04;4.30;;;3.60;;
51374;SDS011;37465;52.738;4.752;2023-11-21T14:08:40;4.15;;;3.75;;
51374;SDS011;37465;52.738;4.752;2023-11-21T14:11:08;4.25;;;3.85;;
51374;SDS011;37465;52.738;4.752;2023-11-21T14:13:37;4.57;;;3.67;;
51374;SDS011;37465;52.738;4.752;2023-11-21T14:16:11;4.05;;;3.60;;
51374;SDS011;37465;52.738;4.752;2023-11-21T14:18:41;4.18;;;3.78;;
51374;SDS011;37465;52.738;4.752;2023-11-21T14:21:18;4.93;;;4.13;;
51374;SDS011;37465;52.738;4.752;2023-11-21T14:23:46;5.22;;;4.72;;
51374;SDS011;37465;52.738;4.752;2023-11-21T14:26:14;5.30;;;4.38;;
51374;SDS011;37465;52.738;4.752;2023-11-21T14:28:43;4.72;;;3.83;;
51374;SDS011;37465;52.738;4.752;2023-11-21T14:31:11;5.72;;;3.85;;
51374;SDS011;37465;52.738;4.752;2023-11-21T14:33:43;4.95;;;4.20;;
51374;SDS011;37465;52.738;4.752;2023-11-21T14:36:11;5.20;;;4.25;;
51374;SDS011;37465;52.738;4.752;2023-11-21T14:38:39;4.90;;;4.03;;
51374;SDS011;37465;52.738;4.752;2023-11-21T14:41:07;4.18;;;3.45;;
51374;SDS011;37465;52.738;4.752;2023-11-21T14:43:36;4.25;;;3.85;;
51374;SDS011;37465;52.738;4.752;2023-11-21T14:46:05;4.15;;;3.63;;
51374;SDS011;37465;52.738;4.752;2023-11-21T14:48:36;4.50;;;3.95;;
51374;SDS011;37465;52.738;4.752;2023-11-21T14:51:10;4.80;;;4.18;;
51374;SDS011;37465;52.738;4.752;2023-11-21T14:53:53;5.07;;;4.35;;
51374;SDS011;37465;52.738;4.752;2023-11-21T14:56:20;5.85;;;4.20;;
51374;SDS011;37465;52.738;4.752;2023-11-21T14:58:53;5.10;;;4.38;;
51374;SDS011;37465;52.738;4.752;2023-11-21T15:01:20;7.35;;;4.50;;
51374;SDS011;37465;52.738;4.752;2023-11-21T15:04:00;5.50;;;4.35;;
51374;SDS011;37465;52.738;4.752;2023-11-21T15:06:28;8.48;;;4.60;;
51374;SDS011;37465;52.738;4.752;2023-11-21T15:08:57;5.22;;;4.40;;
51374;SDS011;37465;52.738;4.752;2023-11-21T15:11:52;5.47;;;4.63;;
51374;SDS011;37465;52.738;4.752;2023-11-21T15:14:24;6.47;;;5.13;;
51374;SDS011;37465;52.738;4.752;2023-11-21T15:16:57;6.68;;;5.18;;
51374;SDS011;37465;52.738;4.752;2023-11-21T15:19:27;6.40;;;5.35;;